createdAt,value
2022-09-14T00:01:36.466Z,6.13
2022-09-14T00:04:08.676Z,6.60
2022-09-14T00:06:37.415Z,6.78
2022-09-14T00:09:07.718Z,6.90
2022-09-14T00:11:37.678Z,6.25
2022-09-14T00:14:08.781Z,6.80
2022-09-14T00:16:41.704Z,5.82
2022-09-14T00:19:17.593Z,5.97
2022-09-14T00:21:46.347Z,6.05
2022-09-14T00:24:14.833Z,5.97
2022-09-14T00:26:43.429Z,6.25
2022-09-14T00:29:13.644Z,6.07
2022-09-14T00:31:42.539Z,6.20
2022-09-14T00:34:14.614Z,5.78
2022-09-14T00:36:46.521Z,6.90
2022-09-14T00:39:16.314Z,6.40
2022-09-14T00:41:48.612Z,6.63
2022-09-14T00:44:55.193Z,6.32
2022-09-14T00:47:26.146Z,6.70
2022-09-14T00:49:55.402Z,6.88
2022-09-14T00:52:27.177Z,6.50
2022-09-14T00:54:59.015Z,7.03
2022-09-14T00:57:30.574Z,6.97
2022-09-14T00:59:59.703Z,7.07
2022-09-14T01:02:30.153Z,6.90
2022-09-14T01:04:59.116Z,7.80
2022-09-14T01:07:43.285Z,7.68
2022-09-14T01:10:27.853Z,6.90
2022-09-14T01:13:09.822Z,7.25
2022-09-14T01:15:48.243Z,6.75
2022-09-14T01:18:24.323Z,6.97
2022-09-14T01:20:58.338Z,8.32
2022-09-14T01:23:34.957Z,7.65
2022-09-14T01:26:21.287Z,7.72
2022-09-14T01:28:56.024Z,8.07
2022-09-14T01:31:30.675Z,8.02
2022-09-14T01:34:07.042Z,8.20
2022-09-14T01:36:38.223Z,7.28
2022-09-14T01:39:08.137Z,7.97
2022-09-14T01:41:38.504Z,8.32
2022-09-14T01:44:13.770Z,8.25
2022-09-14T01:46:47.603Z,7.47
2022-09-14T01:49:20.639Z,7.47
2022-09-14T01:51:51.695Z,7.93
2022-09-14T01:56:57.275Z,7.05
2022-09-14T01:59:32.002Z,8.30
2022-09-14T02:02:06.814Z,8.88
2022-09-14T02:04:40.619Z,8.30
2022-09-14T02:07:09.609Z,8.52
2022-09-14T02:09:39.121Z,8.73
2022-09-14T02:12:08.554Z,7.25
2022-09-14T02:14:38.590Z,8.07
2022-09-14T02:17:08.462Z,8.00
2022-09-14T02:19:42.012Z,7.50
2022-09-14T02:22:10.702Z,8.20
2022-09-14T02:24:39.312Z,8.15
2022-09-14T02:27:08.741Z,9.07
2022-09-14T02:29:39.101Z,7.68
2022-09-14T02:32:20.683Z,8.32
2022-09-14T02:34:59.466Z,7.57
2022-09-14T02:37:38.896Z,7.43
2022-09-14T02:40:14.711Z,8.25
2022-09-14T02:42:54.395Z,9.10
2022-09-14T02:45:31.810Z,8.15
2022-09-14T02:48:08.786Z,7.72
2022-09-14T02:50:44.438Z,8.75
2022-09-14T02:53:19.314Z,8.07
2022-09-14T02:55:52.758Z,8.13
2022-09-14T02:58:21.974Z,8.45
2022-09-14T03:00:52.853Z,8.02
2022-09-14T03:05:51.123Z,7.60
2022-09-14T03:08:19.965Z,8.32
2022-09-14T03:10:49.124Z,8.05
2022-09-14T03:13:17.945Z,7.72
2022-09-14T03:15:47.090Z,7.35
2022-09-14T03:18:17.540Z,8.02
2022-09-14T03:20:46.377Z,7.95
2022-09-14T03:23:15.470Z,7.47
2022-09-14T03:25:45.516Z,7.57
2022-09-14T03:28:14.479Z,7.37
2022-09-14T03:30:43.459Z,7.63
2022-09-14T03:33:12.398Z,7.63
2022-09-14T03:35:42.743Z,7.13
2022-09-14T03:38:11.522Z,7.40
2022-09-14T03:40:40.840Z,7.30
2022-09-14T03:43:09.816Z,6.55
2022-09-14T03:45:38.817Z,7.20
2022-09-14T03:48:07.590Z,8.00
2022-09-14T03:50:36.241Z,7.35
2022-09-14T03:53:06.464Z,7.93
2022-09-14T03:55:35.488Z,7.13
2022-09-14T03:58:04.269Z,6.78
2022-09-14T04:00:32.961Z,7.57
2022-09-14T04:03:02.255Z,8.00
2022-09-14T04:05:31.065Z,7.25
2022-09-14T04:07:59.919Z,7.43
2022-09-14T04:10:30.185Z,6.88
2022-09-14T04:13:02.124Z,6.78
2022-09-14T04:15:31.865Z,7.03
2022-09-14T04:18:00.539Z,7.57
2022-09-14T04:20:29.460Z,7.00
2022-09-14T04:22:58.725Z,7.47
2022-09-14T04:25:27.482Z,7.03
2022-09-14T04:28:19.139Z,6.85
2022-09-14T04:30:46.725Z,6.07
2022-09-14T04:33:15.338Z,6.50
2022-09-14T04:35:45.022Z,6.55
2022-09-14T04:38:13.686Z,6.57
2022-09-14T04:40:43.223Z,6.10
2022-09-14T04:43:13.271Z,6.40
2022-09-14T04:45:42.218Z,7.00
2022-09-14T04:48:10.931Z,6.70
2022-09-14T04:50:39.618Z,6.50
2022-09-14T04:53:08.237Z,6.78
2022-09-14T04:55:37.187Z,6.30
2022-09-14T04:58:06.345Z,7.05
2022-09-14T05:00:37.829Z,7.53
2022-09-14T05:03:06.916Z,6.88
2022-09-14T05:05:41.899Z,7.07
2022-09-14T05:08:13.019Z,5.93
2022-09-14T05:10:41.609Z,6.38
2022-09-14T05:13:10.418Z,6.45
2022-09-14T05:15:40.548Z,6.20
2022-09-14T05:18:09.245Z,6.43
2022-09-14T05:20:39.185Z,6.88
2022-09-14T05:23:08.430Z,7.25
2022-09-14T05:25:37.166Z,6.65
2022-09-14T05:28:06.149Z,7.10
2022-09-14T05:30:34.845Z,7.00
2022-09-14T05:33:05.155Z,7.47
2022-09-14T05:35:33.907Z,7.18
2022-09-14T05:38:02.650Z,6.97
2022-09-14T05:40:31.513Z,7.63
2022-09-14T05:43:00.138Z,7.30
2022-09-14T05:45:28.787Z,8.27
2022-09-14T05:47:57.618Z,7.65
2022-09-14T05:50:27.698Z,7.70
2022-09-14T05:52:56.969Z,8.20
2022-09-14T05:55:25.752Z,7.78
2022-09-14T05:57:54.594Z,8.05
2022-09-14T06:00:23.304Z,8.45
2022-09-14T06:02:53.902Z,8.18
2022-09-14T06:05:25.514Z,9.23
2022-09-14T06:07:56.427Z,8.32
2022-09-14T06:10:25.236Z,9.20
2022-09-14T06:12:55.609Z,8.20
2022-09-14T06:15:24.900Z,8.82
2022-09-14T06:17:53.580Z,9.35
2022-09-14T06:20:22.260Z,8.35
2022-09-14T06:22:51.190Z,7.88
2022-09-14T06:25:21.479Z,8.38
2022-09-14T06:27:50.123Z,8.77
2022-09-14T06:30:18.806Z,8.38
2022-09-14T06:32:47.569Z,8.32
2022-09-14T06:35:16.447Z,8.23
2022-09-14T06:37:45.123Z,8.68
2022-09-14T06:40:13.861Z,7.72
2022-09-14T06:42:44.099Z,9.18
2022-09-14T06:45:12.780Z,8.83
2022-09-14T06:47:41.288Z,8.55
2022-09-14T06:50:10.482Z,8.23
2022-09-14T06:52:40.359Z,8.75
2022-09-14T06:55:10.024Z,7.78
2022-09-14T06:57:42.850Z,7.78
2022-09-14T07:00:14.821Z,8.77
2022-09-14T07:02:43.748Z,8.07
2022-09-14T07:05:13.099Z,8.90
2022-09-14T07:07:41.778Z,8.43
2022-09-14T07:10:12.019Z,7.93
2022-09-14T07:12:40.793Z,8.02
2022-09-14T07:15:10.638Z,8.40
2022-09-14T07:17:40.822Z,7.93
2022-09-14T07:20:11.497Z,7.93
2022-09-14T07:22:40.310Z,8.20
2022-09-14T07:25:10.439Z,7.85
2022-09-14T07:27:40.136Z,8.57
2022-09-14T07:30:11.507Z,9.02
2022-09-14T07:32:41.809Z,7.80
2022-09-14T07:35:11.816Z,9.05
2022-09-14T07:37:40.696Z,9.10
2022-09-14T07:40:11.930Z,9.02
2022-09-14T07:42:40.681Z,8.32
2022-09-14T07:45:10.341Z,8.65
2022-09-14T07:47:40.560Z,8.82
2022-09-14T07:50:11.458Z,7.90
2022-09-14T07:52:40.993Z,8.38
2022-09-14T07:55:12.680Z,8.07
2022-09-14T07:57:55.661Z,7.72
2022-09-14T08:00:25.931Z,7.50
2022-09-14T08:02:58.590Z,7.47
2022-09-14T08:05:27.883Z,7.18
2022-09-14T08:07:56.601Z,7.90
2022-09-14T08:10:26.278Z,7.85
2022-09-14T08:12:56.085Z,7.57
2022-09-14T08:15:28.399Z,7.95
2022-09-14T08:17:58.839Z,7.75
2022-09-14T08:20:27.470Z,8.20
2022-09-14T08:22:56.120Z,8.38
2022-09-14T08:25:24.820Z,8.38
2022-09-14T08:27:53.300Z,8.32
2022-09-14T08:30:21.821Z,8.07
2022-09-14T08:32:50.409Z,8.10
2022-09-14T08:35:35.436Z,8.80
2022-09-14T08:38:08.989Z,9.15
2022-09-14T08:40:45.121Z,8.30
2022-09-14T08:43:15.878Z,8.48
2022-09-14T08:45:45.537Z,8.40
2022-09-14T08:48:24.538Z,8.73
2022-09-14T08:50:55.177Z,9.63
2022-09-14T08:53:25.959Z,9.93
2022-09-14T08:56:00.598Z,9.40
2022-09-14T08:58:45.052Z,10.45
2022-09-14T09:01:23.558Z,9.90
2022-09-14T09:04:10.237Z,9.15
2022-09-14T09:06:50.428Z,10.13
2022-09-14T09:09:26.261Z,9.90
2022-09-14T09:11:57.082Z,9.57
2022-09-14T09:14:31.308Z,10.15
2022-09-14T09:17:03.223Z,10.88
2022-09-14T09:19:38.380Z,10.38
2022-09-14T09:22:15.838Z,9.27
2022-09-14T09:25:23.828Z,10.63
2022-09-14T09:27:55.550Z,10.18
2022-09-14T09:30:24.386Z,10.57
2022-09-14T09:32:53.673Z,9.35
2022-09-14T09:35:45.315Z,10.88
2022-09-14T09:38:25.183Z,11.50
2022-09-14T09:40:57.099Z,10.68
2022-09-14T09:43:47.862Z,9.52
2022-09-14T09:46:14.981Z,9.82
2022-09-14T09:48:46.629Z,10.25
2022-09-14T09:51:20.877Z,9.40
2022-09-14T09:53:56.495Z,9.65
2022-09-14T09:56:27.214Z,9.60
2022-09-14T09:58:56.577Z,9.55
2022-09-14T10:01:30.227Z,10.07
2022-09-14T10:04:17.806Z,10.38
2022-09-14T10:06:48.610Z,9.02
2022-09-14T10:09:21.093Z,9.65
2022-09-14T10:11:58.606Z,10.40
2022-09-14T10:14:31.561Z,8.85
2022-09-14T10:17:08.516Z,8.85
2022-09-14T10:19:38.119Z,8.20
2022-09-14T10:22:26.878Z,9.20
2022-09-14T10:25:02.153Z,8.48
2022-09-14T10:27:48.743Z,8.77
2022-09-14T10:30:19.965Z,9.00
2022-09-14T10:33:02.369Z,9.07
2022-09-14T10:35:42.347Z,8.10
2022-09-14T10:38:32.529Z,8.77
2022-09-14T10:41:14.957Z,8.20
2022-09-14T10:44:05.600Z,8.45
2022-09-14T10:46:44.554Z,9.60
2022-09-14T10:49:32.197Z,8.27
2022-09-14T10:52:17.350Z,8.18
2022-09-14T10:55:09.467Z,8.63
2022-09-14T10:57:50.471Z,8.43
2022-09-14T11:03:09.459Z,8.23
2022-09-14T11:05:41.608Z,8.93
2022-09-14T11:08:24.527Z,8.32
2022-09-14T11:11:10.693Z,8.93
2022-09-14T11:14:04.327Z,9.95
2022-09-14T11:17:01.989Z,9.40
2022-09-14T11:19:40.003Z,8.93
2022-09-14T11:22:22.430Z,9.32
2022-09-14T11:24:58.023Z,9.40
2022-09-14T11:27:31.769Z,9.25
2022-09-14T11:30:06.074Z,9.55
2022-09-14T11:32:40.647Z,8.27
2022-09-14T11:35:17.750Z,8.88
2022-09-14T11:37:50.928Z,8.75
2022-09-14T11:40:25.092Z,9.30
2022-09-14T11:43:01.409Z,8.85
2022-09-14T11:45:37.030Z,9.18
2022-09-14T11:48:41.402Z,9.52
2022-09-14T11:51:08.449Z,9.30
2022-09-14T11:53:38.049Z,9.02
2022-09-14T11:56:07.412Z,8.48
2022-09-14T11:58:36.669Z,9.00
2022-09-14T12:01:28.467Z,9.32
2022-09-14T12:04:18.376Z,9.02
2022-09-14T12:06:50.708Z,9.30
2022-09-14T12:09:42.499Z,10.23
2022-09-14T12:12:35.313Z,10.95
2022-09-14T12:15:05.877Z,9.27
2022-09-14T12:17:41.021Z,10.30
2022-09-14T12:20:33.161Z,10.57
2022-09-14T12:23:23.922Z,10.65
2022-09-14T12:26:39.179Z,10.73
2022-09-14T12:29:27.920Z,10.00
2022-09-14T12:32:07.308Z,9.20
2022-09-14T12:34:37.421Z,9.88
2022-09-14T12:37:31.820Z,9.43
2022-09-14T12:40:36.662Z,8.77
2022-09-14T12:43:44.608Z,10.48
2022-09-14T12:46:33.306Z,9.65
2022-09-14T12:49:03.670Z,9.02
2022-09-14T12:51:45.249Z,9.25
2022-09-14T12:54:29.127Z,8.77
2022-09-14T12:57:10.389Z,9.73
2022-09-14T12:59:46.647Z,8.82
2022-09-14T13:02:44.666Z,8.90
2022-09-14T13:05:17.371Z,9.02
2022-09-14T13:07:48.388Z,8.45
2022-09-14T13:10:22.112Z,8.02
2022-09-14T13:12:52.308Z,8.55
2022-09-14T13:15:24.607Z,8.50
2022-09-14T13:18:08.091Z,8.10
2022-09-14T13:20:37.369Z,7.47
2022-09-14T13:23:21.302Z,8.65
2022-09-14T13:25:50.938Z,7.80
2022-09-14T13:28:21.520Z,7.50
2022-09-14T13:30:56.645Z,6.93
2022-09-14T13:33:25.761Z,6.35
2022-09-14T13:35:56.657Z,6.95
2022-09-14T13:38:30.596Z,6.88
2022-09-14T13:41:08.337Z,6.38
2022-09-14T13:43:37.224Z,6.50
2022-09-14T13:46:08.266Z,6.30
2022-09-14T13:48:40.744Z,6.82
2022-09-14T13:51:10.562Z,5.57
2022-09-14T13:53:42.990Z,5.75
2022-09-14T13:56:20.037Z,5.40
2022-09-14T13:58:50.525Z,5.85
2022-09-14T14:01:28.210Z,5.53
2022-09-14T14:03:58.564Z,5.63
2022-09-14T14:06:29.927Z,5.45
2022-09-14T14:09:07.230Z,5.40
2022-09-14T14:11:39.373Z,5.03
2022-09-14T14:14:13.773Z,4.97
2022-09-14T14:16:42.833Z,4.70
2022-09-14T14:19:29.997Z,5.18
2022-09-14T14:22:20.872Z,5.55
2022-09-14T14:27:45.200Z,4.40
2022-09-14T14:30:17.286Z,4.75
2022-09-14T14:32:51.181Z,4.18
2022-09-14T14:35:22.768Z,4.88
2022-09-14T14:37:51.888Z,4.07
2022-09-14T14:40:22.230Z,4.80
2022-09-14T14:42:51.966Z,4.63
2022-09-14T14:45:22.884Z,4.50
2022-09-14T14:50:23.479Z,3.47
2022-09-14T14:52:52.975Z,4.10
2022-09-14T14:55:24.643Z,4.18
2022-09-14T14:57:53.532Z,4.05
2022-09-14T15:00:25.857Z,3.60
2022-09-14T15:02:54.632Z,4.05
2022-09-14T15:05:24.155Z,4.38
2022-09-14T15:07:55.293Z,4.45
2022-09-14T15:10:27.766Z,4.15
2022-09-14T15:12:56.768Z,4.30
2022-09-14T15:15:27.844Z,4.28
2022-09-14T15:17:56.706Z,3.50
2022-09-14T15:20:25.606Z,4.15
2022-09-14T15:22:54.587Z,4.35
2022-09-14T15:25:27.566Z,3.97
2022-09-14T15:27:56.324Z,3.67
2022-09-14T15:30:24.914Z,4.20
2022-09-14T15:32:53.594Z,4.35
2022-09-14T15:35:22.196Z,5.00
2022-09-14T15:37:51.131Z,4.68
2022-09-14T15:40:20.036Z,4.43
2022-09-14T15:42:50.596Z,4.78
2022-09-14T15:45:19.705Z,4.20
2022-09-14T15:47:48.405Z,5.03
2022-09-14T15:50:17.267Z,4.03
2022-09-14T15:52:46.146Z,5.22
2022-09-14T15:55:14.744Z,5.20
2022-09-14T15:57:43.486Z,5.13
2022-09-14T16:00:15.845Z,5.07
2022-09-14T16:02:50.746Z,4.53
2022-09-14T16:05:19.705Z,5.95
2022-09-14T16:07:48.326Z,4.53
2022-09-14T16:10:17.165Z,4.57
2022-09-14T16:12:45.885Z,4.97
2022-09-14T16:15:16.007Z,4.43
2022-09-14T16:17:44.666Z,5.07
2022-09-14T16:20:14.107Z,4.88
2022-09-14T16:22:42.745Z,5.07
2022-09-14T16:25:11.628Z,5.72
2022-09-14T16:27:40.828Z,5.20
2022-09-14T16:30:10.865Z,5.22
2022-09-14T16:32:41.309Z,5.70
2022-09-14T16:35:10.705Z,5.70
2022-09-14T16:37:39.389Z,5.57
2022-09-14T16:40:09.662Z,5.50
2022-09-14T16:42:38.266Z,5.70
2022-09-14T16:45:08.582Z,4.78
2022-09-14T16:47:38.055Z,5.97
2022-09-14T16:50:08.565Z,5.68
2022-09-14T16:52:37.076Z,5.35
2022-09-14T16:55:06.597Z,5.30
2022-09-14T16:57:35.170Z,5.63
2022-09-14T17:00:04.261Z,5.65
2022-09-14T17:02:33.212Z,5.88
2022-09-14T17:05:02.237Z,4.97
2022-09-14T17:07:32.157Z,5.43
2022-09-14T17:10:00.888Z,5.35
2022-09-14T17:12:29.405Z,5.60
2022-09-14T17:14:58.045Z,5.40
2022-09-14T17:17:26.692Z,5.55
2022-09-14T17:19:55.246Z,5.65
2022-09-14T17:22:23.735Z,5.65
2022-09-14T17:24:53.901Z,5.45
2022-09-14T17:27:22.578Z,5.63
2022-09-14T17:29:51.200Z,6.03
2022-09-14T17:32:20.019Z,5.85
2022-09-14T17:34:48.659Z,5.45
2022-09-14T17:37:17.226Z,5.38
2022-09-14T17:39:45.843Z,5.53
2022-09-14T17:42:16.101Z,6.35
2022-09-14T17:44:44.919Z,5.80
2022-09-14T17:47:13.690Z,5.43
2022-09-14T17:49:42.478Z,6.07
2022-09-14T17:52:12.298Z,5.30
2022-09-14T17:54:40.859Z,5.47
2022-09-14T17:57:09.618Z,5.93
2022-09-14T17:59:39.679Z,6.03
2022-09-14T18:02:08.381Z,5.60
2022-09-14T18:04:37.218Z,5.40
2022-09-14T18:07:06.819Z,5.40
2022-09-14T18:09:36.039Z,4.80
2022-09-14T18:12:05.281Z,4.45
2022-09-14T18:14:33.983Z,4.85
2022-09-14T18:17:04.159Z,4.70
2022-09-14T18:19:32.979Z,5.25
2022-09-14T18:22:01.543Z,4.97
2022-09-14T18:24:30.201Z,4.80
2022-09-14T18:26:58.902Z,4.22
2022-09-14T18:29:29.998Z,4.00
2022-09-14T18:31:58.809Z,4.25
2022-09-14T18:34:29.320Z,4.22
2022-09-14T18:36:58.119Z,4.60
2022-09-14T18:39:26.790Z,4.13
2022-09-14T18:41:56.601Z,3.35
2022-09-14T18:44:26.378Z,3.28
2022-09-14T18:46:55.290Z,3.78
2022-09-14T18:49:23.951Z,4.00
2022-09-14T18:51:53.959Z,3.53
2022-09-14T18:54:27.464Z,3.43
2022-09-14T18:56:56.588Z,2.92
2022-09-14T18:59:25.187Z,3.20
2022-09-14T19:01:54.026Z,2.92
2022-09-14T19:04:22.759Z,3.22
2022-09-14T19:06:51.807Z,3.17
2022-09-14T19:09:22.125Z,2.88
2022-09-14T19:11:50.882Z,2.75
2022-09-14T19:14:20.842Z,2.70
2022-09-14T19:16:50.705Z,2.53
2022-09-14T19:19:21.427Z,2.55
2022-09-14T19:21:50.205Z,3.20
2022-09-14T19:24:19.108Z,2.47
2022-09-14T19:26:51.317Z,2.40
2022-09-14T19:29:23.238Z,2.30
2022-09-14T19:31:52.841Z,2.25
2022-09-14T19:34:22.759Z,2.60
2022-09-14T19:36:53.926Z,2.50
2022-09-14T19:39:23.086Z,2.15
2022-09-14T19:41:53.723Z,2.65
2022-09-14T19:44:23.790Z,1.98
2022-09-14T19:46:52.509Z,1.90
2022-09-14T19:49:23.928Z,1.95
2022-09-14T19:51:53.397Z,2.15
2022-09-14T19:54:22.299Z,2.42
2022-09-14T19:56:52.458Z,2.42
2022-09-14T19:59:21.114Z,1.70
2022-09-14T20:01:51.268Z,1.83
2022-09-14T20:04:20.647Z,2.03
2022-09-14T20:06:49.349Z,1.50
2022-09-14T20:09:20.298Z,1.30
2022-09-14T20:14:22.358Z,1.65
2022-09-14T20:16:52.909Z,1.05
2022-09-14T20:19:23.087Z,0.82
2022-09-14T20:21:53.327Z,1.25
2022-09-14T20:24:26.088Z,0.90
2022-09-14T20:26:57.323Z,0.60
2022-09-14T20:29:30.900Z,0.60
2022-09-14T20:32:00.397Z,0.57
2022-09-14T20:34:29.518Z,0.70
2022-09-14T20:37:00.405Z,0.60
2022-09-14T20:41:58.703Z,0.88
2022-09-14T20:44:28.799Z,0.75
2022-09-14T20:46:57.638Z,1.25
2022-09-14T20:49:26.916Z,0.70
2022-09-14T20:51:57.502Z,1.13
2022-09-14T20:54:26.423Z,1.17
2022-09-14T20:56:55.114Z,0.85
2022-09-14T20:59:23.899Z,1.35
2022-09-14T21:01:54.294Z,1.30
2022-09-14T21:04:26.401Z,1.90
2022-09-14T21:06:56.230Z,1.42
2022-09-14T21:09:26.515Z,1.25
2022-09-14T21:11:55.700Z,1.50
2022-09-14T21:14:24.725Z,1.52
2022-09-14T21:16:56.984Z,2.10
2022-09-14T21:19:28.420Z,1.50
2022-09-14T21:21:57.206Z,1.42
2022-09-14T21:24:26.083Z,1.75
2022-09-14T21:26:54.898Z,1.67
2022-09-14T21:29:24.808Z,1.38
2022-09-14T21:31:55.019Z,1.52
2022-09-14T21:34:23.878Z,1.40
2022-09-14T21:36:53.637Z,1.15
2022-09-14T21:39:24.457Z,0.85
2022-09-14T21:41:58.465Z,0.98
2022-09-14T21:44:31.377Z,1.25
2022-09-14T21:47:02.203Z,1.45
2022-09-14T21:49:30.998Z,0.95
2022-09-14T21:51:59.681Z,1.02
2022-09-14T21:54:28.399Z,0.93
2022-09-14T21:56:57.265Z,0.70
2022-09-14T21:59:26.085Z,0.70
2022-09-14T22:01:54.907Z,0.90
2022-09-14T22:04:27.077Z,0.95
2022-09-14T22:06:57.366Z,1.35
2022-09-14T22:09:28.498Z,0.85
2022-09-14T22:11:57.981Z,1.20
2022-09-14T22:14:28.450Z,0.63
2022-09-14T22:16:57.351Z,0.93
2022-09-14T22:19:28.515Z,0.95
2022-09-14T22:21:57.349Z,0.63
2022-09-14T22:24:28.210Z,0.95
2022-09-14T22:29:26.388Z,0.70
2022-09-14T22:31:55.483Z,1.10
2022-09-14T22:34:24.687Z,1.15
2022-09-14T22:36:54.726Z,0.77
2022-09-14T22:39:23.440Z,1.65
2022-09-14T22:41:52.195Z,1.15
2022-09-14T22:44:20.676Z,1.25
2022-09-14T22:46:49.302Z,1.10
2022-09-14T22:49:17.938Z,1.17
2022-09-14T22:51:47.636Z,1.27
2022-09-14T22:54:18.376Z,1.20
2022-09-14T22:56:46.929Z,1.08
2022-09-14T22:59:15.477Z,0.93
2022-09-14T23:01:44.289Z,1.33
2022-09-14T23:04:14.264Z,1.58
2022-09-14T23:06:44.919Z,1.10
2022-09-14T23:09:16.345Z,1.13
2022-09-14T23:11:47.224Z,0.93
2022-09-14T23:16:45.904Z,1.48
2022-09-14T23:19:17.321Z,1.40
2022-09-14T23:21:46.723Z,1.15
2022-09-14T23:24:16.003Z,1.73
2022-09-14T23:26:44.836Z,1.50
2022-09-14T23:29:17.212Z,1.50
2022-09-14T23:31:46.353Z,1.35
2022-09-14T23:34:15.363Z,2.17
2022-09-14T23:36:44.013Z,2.17
2022-09-14T23:39:12.615Z,1.77
2022-09-14T23:41:41.202Z,1.65
2022-09-14T23:44:11.018Z,1.63
2022-09-14T23:46:41.269Z,1.63
2022-09-14T23:49:12.513Z,1.20
2022-09-14T23:51:42.286Z,1.23
2022-09-14T23:54:11.790Z,1.92
2022-09-14T23:56:40.297Z,1.63
2022-09-14T23:59:08.910Z,1.77
